Time;durP1;ratioP1;P1;durP2;ratioP2;P2;SDS_P1;SDS_P2;PMS_P1;PMS_P2;Temp;Humidity;BMP_temperature;BMP_pressure;BME280_temperature;BME280_humidity;BME280_pressure;Samples;Min_cycle;Max_cycle;Signal;HPM_P1;HPM_P2
2023/12/04 00:00:10;;;;;;;;;;;;;;;-144.99;100.00;52680.47;5014967;28;20253;-70
2023/12/04 00:02:39;;;;;;;;;;;;;;;-144.99;100.00;52647.84;5028683;28;20319;-70
2023/12/04 00:05:06;;;;;;;;;;;;;;;-144.99;100.00;52658.03;5028518;28;20332;-69
2023/12/04 00:07:32;;;;;;;;;;;;;;;-144.99;100.00;52664.16;5021076;28;20038;-69
2023/12/04 00:09:59;;;;;;;;;;;;;;;-144.99;100.00;52686.59;5028035;28;19925;-69
2023/12/04 00:12:25;;;;;;;;;;;;;;;-144.99;100.00;52676.38;5016342;28;19925;-69
2023/12/04 00:14:52;;;;;;;;;;;;;;;-144.99;100.00;52688.63;5023435;28;19964;-69
2023/12/04 00:17:18;;;;;;;;;;;;;;;-144.99;100.00;52645.81;5024175;28;20229;-69
2023/12/04 00:19:46;;;;;;;;;;;;;;;-144.99;100.00;52639.69;5022283;28;19928;-69
2023/12/04 00:22:13;;;;;;;;;;;;;;;-144.99;100.00;52651.94;5024319;28;19940;-68
2023/12/04 00:24:39;;;;;;;;;;;;;;;-144.99;100.00;52647.84;5023897;28;20292;-67
2023/12/04 00:27:06;;;;;;;;;;;;;;;-144.99;100.00;52660.09;5022467;28;19926;-67
2023/12/04 00:29:32;;;;;;;;;;;;;;;-144.99;100.00;52668.22;5024174;28;19933;-67
2023/12/04 00:31:59;;;;;;;;;;;;;;;-144.99;100.00;52676.38;5037574;28;19932;-67
2023/12/04 00:34:25;;;;;;;;;;;;;;;-144.99;100.00;52672.31;5022683;28;19980;-66
2023/12/04 00:36:53;;;;;;;;;;;;;;;-144.99;100.00;52664.16;5030591;28;19965;-66
2023/12/04 00:39:19;;;;;;;;;;;;;;;-144.99;100.00;52639.69;5035528;28;19972;-65
2023/12/04 00:41:46;;;;;;;;;;;;;;;-144.99;100.00;52643.78;5016204;28;19925;-65
2023/12/04 00:44:12;;;;;;;;;;;;;;;-144.99;100.00;52627.47;5023479;28;19971;-66
2023/12/04 00:46:39;;;;;;;;;;;;;;;-144.99;100.00;52656.00;5029258;28;19929;-66
2023/12/04 00:49:05;;;;;;;;;;;;;;;-144.99;100.00;52656.00;5030731;28;19957;-66
2023/12/04 00:51:37;;;;;;;;;;;;;;;-144.99;100.00;52672.31;5021387;28;19929;-65
2023/12/04 00:54:05;;;;;;;;;;;;;;;-144.99;100.00;52645.81;5020730;28;19983;-66
2023/12/04 00:56:32;;;;;;;;;;;;;;;-144.99;100.00;52676.38;5020914;28;19925;-67
2023/12/04 00:58:58;;;;;;;;;;;;;;;-144.99;100.00;52682.50;5028409;28;19929;-66
2023/12/04 01:01:25;;;;;;;;;;;;;;;-144.99;100.00;52656.00;5024935;28;19925;-65
2023/12/04 01:03:51;;;;;;;;;;;;;;;-144.99;100.00;52647.84;5020344;28;19929;-65
2023/12/04 01:06:22;;;;;;;;;;;;;;;-144.99;100.00;52631.53;5023959;28;20348;-65
2023/12/04 01:08:48;;;;;;;;;;;;;;;-144.99;100.00;52694.72;5027399;28;19929;-65
2023/12/04 01:11:16;;;;;;;;;;;;;;;-144.99;100.00;52647.84;5022821;28;20228;-65
2023/12/04 01:13:43;;;;;;;;;;;;;;;-144.99;100.00;52633.59;5024954;28;20379;-64
2023/12/04 01:16:10;;;;;;;;;;;;;;;-144.99;100.00;52633.59;5034445;28;20331;-64
2023/12/04 01:18:36;;;;;;;;;;;;;;;-144.99;100.00;52653.97;5021279;28;20024;-72
2023/12/04 01:21:03;;;;;;;;;;;;;;;-144.99;100.00;52651.94;5025129;28;19976;-66
2023/12/04 01:23:29;;;;;;;;;;;;;;;-144.99;100.00;52658.03;5036434;28;19928;-68
2023/12/04 01:25:56;;;;;;;;;;;;;;;-144.99;100.00;52664.16;5016655;28;19925;-68
2023/12/04 01:28:24;;;;;;;;;;;;;;;-144.99;100.00;52639.69;5037973;28;20063;-67
2023/12/04 01:30:50;;;;;;;;;;;;;;;-144.99;100.00;52651.94;5026235;28;20414;-67
2023/12/04 01:33:17;;;;;;;;;;;;;;;-144.99;100.00;52688.63;5014164;28;19965;-67
2023/12/04 01:35:43;;;;;;;;;;;;;;;-144.99;100.00;52651.94;5028829;28;20430;-65
2023/12/04 01:38:09;;;;;;;;;;;;;;;-144.99;100.00;52651.94;5030575;28;19987;-66
2023/12/04 01:40:36;;;;;;;;;;;;;;;-144.99;100.00;52647.84;5024548;28;19925;-68
2023/12/04 01:43:03;;;;;;;;;;;;;;;-144.99;100.00;52633.59;5021578;28;20175;-68
2023/12/04 01:45:31;;;;;;;;;;;;;;;-144.99;100.00;52643.78;5036867;28;20315;-68
2023/12/04 01:47:58;;;;;;;;;;;;;;;-144.99;100.00;52692.69;5026658;28;19925;-67
2023/12/04 01:50:27;;;;;;;;;;;;;;;-144.99;100.00;52643.78;5026689;28;19924;-66
2023/12/04 01:52:54;;;;;;;;;;;;;;;-144.99;100.00;52660.09;5038718;28;19964;-67
2023/12/04 01:55:21;;;;;;;;;;;;;;;-144.99;100.00;52696.78;5026253;28;19930;-67
2023/12/04 01:57:48;;;;;;;;;;;;;;;-144.99;100.00;52688.63;5026553;28;19924;-67
2023/12/04 02:00:15;;;;;;;;;;;;;;;-144.99;100.00;52609.13;5027624;28;19929;-67
2023/12/04 02:02:43;;;;;;;;;;;;;;;-144.99;100.00;52684.53;5031548;28;20549;-67
2023/12/04 02:05:10;;;;;;;;;;;;;;;-144.99;100.00;52709.00;5026025;28;19926;-68
2023/12/04 02:07:36;;;;;;;;;;;;;;;-144.99;100.00;52647.84;5017712;28;20391;-65
2023/12/04 02:10:03;;;;;;;;;;;;;;;-144.99;100.00;52651.94;5028176;28;19972;-66
2023/12/04 02:12:30;;;;;;;;;;;;;;;-144.99;100.00;52704.94;5021597;28;20003;-64
2023/12/04 02:14:56;;;;;;;;;;;;;;;-144.99;100.00;52643.78;5022945;28;19925;-65
2023/12/04 02:17:23;;;;;;;;;;;;;;;-144.99;100.00;52651.94;5035156;28;20417;-66
2023/12/04 02:19:51;;;;;;;;;;;;;;;-144.99;100.00;52660.09;5031719;28;19941;-65
2023/12/04 02:22:18;;;;;;;;;;;;;;;-144.99;100.00;52660.09;5040238;28;20179;-65
2023/12/04 02:24:46;;;;;;;;;;;;;;;-144.99;100.00;52672.31;5015962;28;19937;-66
2023/12/04 02:27:15;;;;;;;;;;;;;;;-144.99;100.00;52643.78;5034477;28;20394;-67
2023/12/04 02:29:43;;;;;;;;;;;;;;;-144.99;100.00;52692.69;5031345;28;19967;-69
2023/12/04 02:32:12;;;;;;;;;;;;;;;-144.99;100.00;52635.63;5034240;28;20040;-69
2023/12/04 02:34:40;;;;;;;;;;;;;;;-144.99;100.00;52672.31;5022608;28;19961;-69
2023/12/04 02:37:09;;;;;;;;;;;;;;;-144.99;100.00;52647.84;5030185;28;19926;-69
2023/12/04 02:39:35;;;;;;;;;;;;;;;-144.99;100.00;52668.22;5034925;28;19929;-70
2023/12/04 02:42:04;;;;;;;;;;;;;;;-144.99;100.00;52639.69;5029013;28;20354;-69
2023/12/04 02:44:30;;;;;;;;;;;;;;;-144.99;100.00;52658.03;5017524;28;19937;-70
2023/12/04 02:46:57;;;;;;;;;;;;;;;-144.99;100.00;52676.38;5029311;28;19979;-69
2023/12/04 02:49:23;;;;;;;;;;;;;;;-144.99;100.00;52664.16;5031443;28;19933;-69
2023/12/04 02:51:50;;;;;;;;;;;;;;;-144.99;100.00;52688.63;5027078;28;19956;-68
2023/12/04 02:54:16;;;;;;;;;;;;;;;-144.99;100.00;52639.69;5026513;28;19947;-67
2023/12/04 02:56:43;;;;;;;;;;;;;;;-144.99;100.00;52684.53;5028666;28;19932;-70
2023/12/04 02:59:10;;;;;;;;;;;;;;;-144.99;100.00;52653.97;5033840;28;19928;-70
2023/12/04 03:01:37;;;;;;;;;;;;;;;-144.99;100.00;52656.00;5032826;28;19969;-70
2023/12/04 03:04:03;;;;;;;;;;;;;;;-144.99;100.00;52668.22;5023559;28;19990;-70
2023/12/04 03:06:30;;;;;;;;;;;;;;;-144.99;100.00;52682.50;5030752;28;19999;-70
2023/12/04 03:08:57;;;;;;;;;;;;;;;-144.99;100.00;52664.16;5029484;28;19925;-70
2023/12/04 03:11:23;;;;;;;;;;;;;;;-144.99;100.00;52680.47;5032536;28;20386;-70
2023/12/04 03:13:50;;;;;;;;;;;;;;;-144.99;100.00;52629.50;5025354;28;19933;-70
2023/12/04 03:16:18;;;;;;;;;;;;;;;-144.99;100.00;52633.59;5021317;28;21304;-70
2023/12/04 03:18:45;;;;;;;;;;;;;;;-144.99;100.00;52641.72;5023059;28;19933;-71
2023/12/04 03:21:11;;;;;;;;;;;;;;;-144.99;100.00;52684.53;5029808;28;20403;-70
2023/12/04 03:23:38;;;;;;;;;;;;;;;-144.99;100.00;52651.94;5014059;28;19999;-66
2023/12/04 03:26:04;;;;;;;;;;;;;;;-144.99;100.00;52668.22;5025006;28;20008;-65
2023/12/04 03:28:31;;;;;;;;;;;;;;;-144.99;100.00;52619.31;5028855;28;19967;-65
2023/12/04 03:30:57;;;;;;;;;;;;;;;-144.99;100.00;52688.63;5024679;28;19925;-64
2023/12/04 03:33:25;;;;;;;;;;;;;;;-144.99;100.00;52656.00;5032494;28;19925;-65
2023/12/04 03:35:52;;;;;;;;;;;;;;;-144.99;100.00;52666.19;5011707;28;19980;-66
2023/12/04 03:38:18;;;;;;;;;;;;;;;-144.99;100.00;52688.63;5033325;28;20366;-66
2023/12/04 03:40:45;;;;;;;;;;;;;;;-144.99;100.00;52668.22;5014764;28;19980;-66
2023/12/04 03:43:11;;;;;;;;;;;;;;;-144.99;100.00;52668.22;5033807;28;20394;-67
2023/12/04 03:45:38;;;;;;;;;;;;;;;-144.99;100.00;52623.38;5031858;28;20346;-66
2023/12/04 03:48:04;;;;;;;;;;;;;;;-144.99;100.00;52688.63;5034554;28;20055;-67
2023/12/04 03:50:32;;;;;;;;;;;;;;;-144.99;100.00;52660.09;5028856;28;19956;-67
2023/12/04 03:52:59;;;;;;;;;;;;;;;-144.99;100.00;52670.28;5038927;28;20026;-66
2023/12/04 03:55:25;;;;;;;;;;;;;;;-144.99;100.00;52653.97;5032693;28;19959;-66
2023/12/04 03:57:52;;;;;;;;;;;;;;;-144.99;100.00;52639.69;5034825;28;20372;-66
2023/12/04 04:00:19;;;;;;;;;;;;;;;-144.99;100.00;52676.38;5032105;28;19925;-68
2023/12/04 04:02:45;;;;;;;;;;;;;;;-144.99;100.00;52639.69;5032990;28;20371;-67
2023/12/04 04:05:12;;;;;;;;;;;;;;;-144.99;100.00;52670.28;5035483;28;19925;-67
2023/12/04 04:07:41;;;;;;;;;;;;;;;-144.99;100.00;52717.16;5018123;28;20320;-68
2023/12/04 04:10:08;;;;;;;;;;;;;;;-144.99;100.00;52672.31;5027931;28;19983;-67
2023/12/04 04:12:34;;;;;;;;;;;;;;;-144.99;100.00;52653.97;5036265;28;19998;-67
2023/12/04 04:15:01;;;;;;;;;;;;;;;-144.99;100.00;52709.00;5025388;28;19972;-67
2023/12/04 04:17:27;;;;;;;;;;;;;;;-144.99;100.00;52692.69;5031513;28;19976;-66
2023/12/04 04:19:54;;;;;;;;;;;;;;;-144.99;100.00;52635.63;5021416;28;20020;-68
2023/12/04 04:22:21;;;;;;;;;;;;;;;-144.99;100.00;52690.66;5024359;28;19929;-68
2023/12/04 04:24:49;;;;;;;;;;;;;;;-144.99;100.00;52656.00;5033114;28;19979;-67
2023/12/04 04:27:15;;;;;;;;;;;;;;;-144.99;100.00;52651.94;5033570;28;20034;-67
2023/12/04 04:29:42;;;;;;;;;;;;;;;-144.99;100.00;52684.53;5028593;28;19960;-67
2023/12/04 04:32:08;;;;;;;;;;;;;;;-144.99;100.00;52684.53;5028386;28;19929;-66
2023/12/04 04:34:35;;;;;;;;;;;;;;;-144.99;100.00;52639.69;5025976;28;19983;-69
2023/12/04 04:37:01;;;;;;;;;;;;;;;-144.99;100.00;52704.94;5027923;28;20412;-70
2023/12/04 04:39:28;;;;;;;;;;;;;;;-144.99;100.00;52680.47;5021057;28;19925;-70
2023/12/04 04:41:56;;;;;;;;;;;;;;;-144.99;100.00;52645.81;5021003;28;19929;-66
2023/12/04 04:44:22;;;;;;;;;;;;;;;-144.99;100.00;52643.78;5024585;28;19925;-66
2023/12/04 04:46:49;;;;;;;;;;;;;;;-144.99;100.00;52676.38;5019200;28;20321;-68
2023/12/04 04:49:15;;;;;;;;;;;;;;;-144.99;100.00;52700.84;5023571;28;19979;-65
2023/12/04 04:51:42;;;;;;;;;;;;;;;-144.99;100.00;52698.81;5032820;28;19933;-66
2023/12/04 04:54:08;;;;;;;;;;;;;;;-144.99;100.00;52660.09;5025644;28;20029;-64
2023/12/04 04:56:35;;;;;;;;;;;;;;;-144.99;100.00;52625.44;5023529;28;19925;-66
2023/12/04 04:59:03;;;;;;;;;;;;;;;-144.99;100.00;52664.16;5019238;28;19929;-64
2023/12/04 05:01:29;;;;;;;;;;;;;;;-144.99;100.00;52686.59;5038033;28;20383;-63
2023/12/04 05:03:56;;;;;;;;;;;;;;;-144.99;100.00;52639.69;5033478;28;19960;-75
2023/12/04 05:06:23;;;;;;;;;;;;;;;-144.99;100.00;52668.22;5017858;28;20402;-76
2023/12/04 05:08:50;;;;;;;;;;;;;;;-144.99;100.00;52645.81;5027506;28;20353;-75
2023/12/04 05:11:17;;;;;;;;;;;;;;;-144.99;100.00;52660.09;5029109;28;20222;-75
2023/12/04 05:13:43;;;;;;;;;;;;;;;-144.99;100.00;52641.72;5024717;28;20016;-75
2023/12/04 05:16:11;;;;;;;;;;;;;;;-144.99;100.00;52643.78;5023520;28;20367;-76
2023/12/04 05:18:39;;;;;;;;;;;;;;;-144.99;100.00;52702.88;5026070;28;19929;-75
2023/12/04 05:21:09;;;;;;;;;;;;;;;-144.99;100.00;52676.38;5017370;28;19929;-75
2023/12/04 05:23:35;;;;;;;;;;;;;;;-144.99;100.00;52651.94;5027837;28;20012;-65
2023/12/04 05:26:02;;;;;;;;;;;;;;;-144.99;100.00;52678.44;5026130;28;19987;-70
2023/12/04 05:28:28;;;;;;;;;;;;;;;-144.99;100.00;52676.38;5021779;28;19925;-66
2023/12/04 05:30:55;;;;;;;;;;;;;;;-144.99;100.00;52680.47;5028162;28;20016;-66
2023/12/04 05:33:23;;;;;;;;;;;;;;;-144.99;100.00;52678.44;5022495;28;20408;-66
2023/12/04 05:35:50;;;;;;;;;;;;;;;-144.99;100.00;52666.19;5024281;28;19925;-66
2023/12/04 05:38:17;;;;;;;;;;;;;;;-144.99;100.00;52658.03;5028974;28;19925;-65
2023/12/04 05:40:44;;;;;;;;;;;;;;;-144.99;100.00;52664.16;5024472;28;19925;-66
2023/12/04 05:43:10;;;;;;;;;;;;;;;-144.99;100.00;52656.00;5045708;22;19928;-72
2023/12/04 05:45:37;;;;;;;;;;;;;;;-144.99;100.00;52651.94;5035448;28;19929;-72
2023/12/04 05:48:04;;;;;;;;;;;;;;;-144.99;100.00;52668.22;5035215;28;19925;-72
2023/12/04 05:50:32;;;;;;;;;;;;;;;-144.99;100.00;52676.38;5039583;28;19925;-72
2023/12/04 05:52:58;;;;;;;;;;;;;;;-144.99;100.00;52643.78;5045731;28;19925;-71
2023/12/04 05:55:25;;;;;;;;;;;;;;;-144.99;100.00;52696.78;5035268;28;19929;-70
2023/12/04 05:57:51;;;;;;;;;;;;;;;-144.99;100.00;52662.13;5021057;28;19971;-66
2023/12/04 06:00:18;;;;;;;;;;;;;;;-144.99;100.00;52684.53;5019744;28;19977;-71
2023/12/04 06:02:45;;;;;;;;;;;;;;;-144.99;100.00;52639.69;5022686;28;19996;-71
2023/12/04 06:05:11;;;;;;;;;;;;;;;-144.99;100.00;52621.34;5022100;28;19989;-71
2023/12/04 06:07:41;;;;;;;;;;;;;;;-144.99;100.00;52643.78;5025705;28;19929;-71
2023/12/04 06:10:08;;;;;;;;;;;;;;;-144.99;100.00;52658.03;5029842;28;20011;-71
2023/12/04 06:12:34;;;;;;;;;;;;;;;-144.99;100.00;52664.16;5022502;28;19967;-71
2023/12/04 06:15:01;;;;;;;;;;;;;;;-144.99;100.00;52676.38;5012812;28;19944;-70
2023/12/04 06:17:39;;;;;;;;;;;;;;;-144.99;100.00;52676.38;4736415;28;9999890;-71
2023/12/04 06:20:07;;;;;;;;;;;;;;;-144.99;100.00;52680.47;5023062;28;19925;-71
2023/12/04 06:22:34;;;;;;;;;;;;;;;-144.99;100.00;52668.22;5026577;28;19925;-71
2023/12/04 06:25:02;;;;;;;;;;;;;;;-144.99;100.00;52627.47;5028652;28;19999;-75
2023/12/04 06:27:29;;;;;;;;;;;;;;;-144.99;100.00;52672.31;5020657;28;20402;-71
2023/12/04 06:29:55;;;;;;;;;;;;;;;-144.99;100.00;52680.47;5023991;28;19925;-71
2023/12/04 06:32:22;;;;;;;;;;;;;;;-144.99;100.00;52664.16;5037773;28;20498;-71
2023/12/04 06:34:49;;;;;;;;;;;;;;;-144.99;100.00;52649.88;5008975;28;19964;-71
2023/12/04 06:37:16;;;;;;;;;;;;;;;-144.99;100.00;52647.84;5024789;28;19972;-71
2023/12/04 06:39:44;;;;;;;;;;;;;;;-144.99;100.00;52660.09;5011801;28;20219;-71
2023/12/04 06:42:12;;;;;;;;;;;;;;;-144.99;100.00;52664.16;5033110;28;20012;-71
2023/12/04 06:44:39;;;;;;;;;;;;;;;-144.99;100.00;52656.00;5033809;28;20286;-71
2023/12/04 06:47:08;;;;;;;;;;;;;;;-144.99;100.00;52651.94;5028644;28;20015;-71
2023/12/04 06:49:35;;;;;;;;;;;;;;;-144.99;100.00;52631.53;5034909;28;19960;-71
2023/12/04 06:52:02;;;;;;;;;;;;;;;-144.99;100.00;52635.63;5036014;28;19928;-71
2023/12/04 06:54:28;;;;;;;;;;;;;;;-144.99;100.00;52684.53;5033355;28;19991;-71
2023/12/04 06:56:55;;;;;;;;;;;;;;;-144.99;100.00;52623.38;5034397;28;19933;-71
2023/12/04 06:59:22;;;;;;;;;;;;;;;-144.99;100.00;52678.44;5031626;28;19995;-71
2023/12/04 07:01:49;;;;;;;;;;;;;;;-144.99;100.00;52619.31;5037514;28;20695;-71
2023/12/04 07:04:20;;;;;;;;;;;;;;;-144.99;100.00;52668.22;5032324;28;19929;-71
2023/12/04 07:06:47;;;;;;;;;;;;;;;-144.99;100.00;52651.94;5038832;28;19929;-71
2023/12/04 07:09:14;;;;;;;;;;;;;;;-144.99;100.00;52656.00;5031899;28;19929;-72
2023/12/04 07:11:40;;;;;;;;;;;;;;;-144.99;100.00;52680.47;5022520;28;19988;-72
2023/12/04 07:14:07;;;;;;;;;;;;;;;-144.99;100.00;52660.09;5038347;28;19929;-72
2023/12/04 07:16:41;;;;;;;;;;;;;;;-144.99;100.00;52660.09;5034196;28;19929;-72
2023/12/04 07:19:07;;;;;;;;;;;;;;;-144.99;100.00;52656.00;5042052;28;19929;-72
2023/12/04 07:21:34;;;;;;;;;;;;;;;-144.99;100.00;52656.00;5046280;28;19913;-72
2023/12/04 07:24:00;;;;;;;;;;;;;;;-144.99;100.00;52686.59;5042043;28;19959;-72
2023/12/04 07:26:27;;;;;;;;;;;;;;;-144.99;100.00;52656.00;5039858;28;19925;-73
2023/12/04 07:28:53;;;;;;;;;;;;;;;-144.99;100.00;52639.69;5029944;28;20296;-72
2023/12/04 07:31:20;;;;;;;;;;;;;;;-144.99;100.00;52605.03;5033312;28;19929;-71
2023/12/04 07:33:48;;;;;;;;;;;;;;;-144.99;100.00;52662.13;5031210;28;19940;-71
2023/12/04 07:36:14;;;;;;;;;;;;;;;-144.99;100.00;52656.00;5034388;28;19925;-71
2023/12/04 07:38:41;;;;;;;;;;;;;;;-144.99;100.00;52639.69;5040807;28;19933;-71
2023/12/04 07:41:07;;;;;;;;;;;;;;;-144.99;100.00;52676.38;5029816;28;19925;-72
2023/12/04 07:43:34;;;;;;;;;;;;;;;-144.99;100.00;52660.09;5047384;28;19978;-71
2023/12/04 07:46:00;;;;;;;;;;;;;;;-144.99;100.00;52668.22;5036943;28;19933;-71
2023/12/04 07:48:27;;;;;;;;;;;;;;;-144.99;100.00;52672.31;5024535;28;19952;-71
2023/12/04 07:50:55;;;;;;;;;;;;;;;-144.99;100.00;52635.63;5035414;28;19956;-71
2023/12/04 07:53:22;;;;;;;;;;;;;;;-144.99;100.00;52637.66;4693041;28;9999851;-71
2023/12/04 07:55:50;;;;;;;;;;;;;;;-144.99;100.00;52635.63;5030185;28;19956;-71
2023/12/04 07:58:17;;;;;;;;;;;;;;;-144.99;100.00;52682.50;5022070;28;19929;-72
2023/12/04 08:00:44;;;;;;;;;;;;;;;-144.99;100.00;52676.38;5042773;28;19929;-71
2023/12/04 08:03:11;;;;;;;;;;;;;;;-144.99;100.00;52635.63;5047161;28;19929;-72
2023/12/04 08:05:37;;;;;;;;;;;;;;;-144.99;100.00;52676.38;5036631;28;19930;-71
2023/12/04 08:08:05;;;;;;;;;;;;;;;-144.99;100.00;52676.38;5024665;28;20027;-71
2023/12/04 08:10:32;;;;;;;;;;;;;;;-144.99;100.00;52698.81;5026031;28;19987;-71
2023/12/04 08:13:00;;;;;;;;;;;;;;;-144.99;100.00;52656.00;5026254;28;20433;-71
2023/12/04 08:15:26;;;;;;;;;;;;;;;-144.99;100.00;52643.78;5026456;28;19929;-71
2023/12/04 08:17:53;;;;;;;;;;;;;;;-144.99;100.00;52676.38;5033412;28;20411;-70
2023/12/04 08:20:22;;;;;;;;;;;;;;;-144.99;100.00;52619.31;5027155;28;20229;-71
2023/12/04 08:22:49;;;;;;;;;;;;;;;-144.99;100.00;52664.16;5027951;28;20015;-71
2023/12/04 08:25:17;;;;;;;;;;;;;;;-144.99;100.00;52656.00;5031959;28;19975;-71
2023/12/04 08:27:43;;;;;;;;;;;;;;;-144.99;100.00;52664.16;5031554;28;19931;-71
2023/12/04 08:30:10;;;;;;;;;;;;;;;-144.99;100.00;52649.88;5052775;28;19929;-71
2023/12/04 08:32:36;;;;;;;;;;;;;;;-144.99;100.00;52627.47;5047288;28;19913;-71
2023/12/04 08:35:05;;;;;;;;;;;;;;;-144.99;100.00;52674.34;5029947;28;19929;-70
2023/12/04 08:37:31;;;;;;;;;;;;;;;-144.99;100.00;52653.97;5030060;28;19933;-70
2023/12/04 08:39:58;;;;;;;;;;;;;;;-144.99;100.00;52660.09;5028651;28;19953;-71
2023/12/04 08:42:26;;;;;;;;;;;;;;;-144.99;100.00;52639.69;5044568;28;19925;-71
2023/12/04 08:44:52;;;;;;;;;;;;;;;-144.99;100.00;52660.09;5037337;28;19929;-71
2023/12/04 08:47:19;;;;;;;;;;;;;;;-144.99;100.00;52684.53;5029977;28;19979;-71
2023/12/04 08:49:46;;;;;;;;;;;;;;;-144.99;100.00;52645.81;5025260;28;19933;-71
2023/12/04 08:52:13;;;;;;;;;;;;;;;-144.99;100.00;52651.94;5021670;28;19948;-71
2023/12/04 08:54:40;;;;;;;;;;;;;;;-144.99;100.00;52651.94;5027292;28;19929;-71
2023/12/04 08:57:06;;;;;;;;;;;;;;;-144.99;100.00;52631.53;5016829;28;19937;-70
2023/12/04 08:59:35;;;;;;;;;;;;;;;-144.99;100.00;52643.78;5022698;28;20200;-71
2023/12/04 09:02:03;;;;;;;;;;;;;;;-144.99;100.00;52651.94;5036659;28;19955;-71
2023/12/04 09:04:30;;;;;;;;;;;;;;;-144.99;100.00;52649.88;5025667;28;20023;-71
2023/12/04 09:06:56;;;;;;;;;;;;;;;-144.99;100.00;52668.22;5014652;28;19929;-72
2023/12/04 09:09:23;;;;;;;;;;;;;;;-144.99;100.00;52668.22;5019314;28;19975;-71
2023/12/04 09:11:49;;;;;;;;;;;;;;;-144.99;100.00;52627.47;5019881;28;20002;-71
2023/12/04 09:14:16;;;;;;;;;;;;;;;-144.99;100.00;52660.09;5022868;28;19929;-71
2023/12/04 09:16:44;;;;;;;;;;;;;;;-144.99;100.00;52643.78;5031726;28;19929;-71
2023/12/04 09:19:11;;;;;;;;;;;;;;;-144.99;100.00;52684.53;5027127;28;19929;-71
2023/12/04 09:21:37;;;;;;;;;;;;;;;-144.99;100.00;52627.47;5037966;28;19929;-72
2023/12/04 09:24:04;;;;;;;;;;;;;;;-144.99;100.00;52668.22;5035537;28;19933;-71
2023/12/04 09:26:30;;;;;;;;;;;;;;;-144.99;100.00;52651.94;5037868;28;19926;-71
2023/12/04 09:28:57;;;;;;;;;;;;;;;-144.99;100.00;52649.88;5021440;28;19925;-71
2023/12/04 09:31:24;;;;;;;;;;;;;;;-144.99;100.00;52688.63;5025359;28;20030;-73
2023/12/04 09:33:52;;;;;;;;;;;;;;;-144.99;100.00;52653.97;5023205;28;20413;-71
2023/12/04 09:36:18;;;;;;;;;;;;;;;-144.99;100.00;52660.09;5022264;28;20287;-71
2023/12/04 09:38:45;;;;;;;;;;;;;;;-144.99;100.00;52668.22;5026339;28;20394;-71
2023/12/04 09:41:13;;;;;;;;;;;;;;;-144.99;100.00;52656.00;5019935;28;19929;-71
2023/12/04 09:43:41;;;;;;;;;;;;;;;-144.99;100.00;52641.72;5026931;28;19964;-71
2023/12/04 09:46:08;;;;;;;;;;;;;;;-144.99;100.00;52658.03;5020892;28;19935;-72
2023/12/04 09:48:35;;;;;;;;;;;;;;;-144.99;100.00;52656.00;5030502;28;20406;-71
2023/12/04 09:51:03;;;;;;;;;;;;;;;-144.99;100.00;52631.53;5049654;28;19929;-71
2023/12/04 09:53:31;;;;;;;;;;;;;;;-144.99;100.00;52643.78;5044683;28;19964;-71
2023/12/04 09:56:00;;;;;;;;;;;;;;;-144.99;100.00;52668.22;5039163;28;19972;-71
2023/12/04 09:58:28;;;;;;;;;;;;;;;-144.99;100.00;52656.00;5026005;28;19936;-71
2023/12/04 10:00:55;;;;;;;;;;;;;;;-144.99;100.00;52674.34;5028875;28;20156;-71
2023/12/04 10:03:22;;;;;;;;;;;;;;;-144.99;100.00;52619.31;5024200;28;19925;-71
2023/12/04 10:05:49;;;;;;;;;;;;;;;-144.99;100.00;52660.09;5039365;28;19967;-71
2023/12/04 10:08:17;;;;;;;;;;;;;;;-144.99;100.00;52651.94;5053083;28;19929;-71
2023/12/04 10:10:44;;;;;;;;;;;;;;;-144.99;100.00;52684.53;5032318;28;19956;-71
2023/12/04 10:13:10;;;;;;;;;;;;;;;-144.99;100.00;52647.84;5037636;28;19933;-72
2023/12/04 10:15:46;;;;;;;;;;;;;;;-144.99;100.00;52635.63;5030469;28;20330;-72
2023/12/04 10:18:25;;;;;;;;;;;;;;;-144.99;100.00;52615.25;5026004;28;20323;-72
2023/12/04 10:20:52;;;;;;;;;;;;;;;-144.99;100.00;52631.53;5024517;28;19929;-72
2023/12/04 10:23:20;;;;;;;;;;;;;;;-144.99;100.00;52613.19;5017014;28;20370;-72
2023/12/04 10:25:49;;;;;;;;;;;;;;;-144.99;100.00;52692.69;5023597;28;19929;-71
2023/12/04 10:28:16;;;;;;;;;;;;;;;-144.99;100.00;52635.63;5022620;28;20031;-72
2023/12/04 10:30:43;;;;;;;;;;;;;;;-144.99;100.00;52656.00;5022596;28;19940;-72
2023/12/04 10:33:11;;;;;;;;;;;;;;;-144.99;100.00;52635.63;5012228;28;19984;-71
2023/12/04 10:35:38;;;;;;;;;;;;;;;-144.99;100.00;52609.13;5016040;28;19929;-72
2023/12/04 10:38:05;;;;;;;;;;;;;;;-144.99;100.00;52668.22;5029787;28;19936;-71
2023/12/04 10:40:33;;;;;;;;;;;;;;;-144.99;100.00;52664.16;5025811;28;19928;-72
2023/12/04 10:43:13;;;;;;;;;;;;;;;-144.99;100.00;52658.03;5030664;28;19933;-72
2023/12/04 10:45:40;;;;;;;;;;;;;;;-144.99;100.00;52598.94;5027998;28;19933;-71
2023/12/04 10:48:07;;;;;;;;;;;;;;;-144.99;100.00;52615.25;5014897;28;19929;-71
2023/12/04 10:50:34;;;;;;;;;;;;;;;-144.99;100.00;52645.81;5027046;28;19969;-72
2023/12/04 10:53:02;;;;;;;;;;;;;;;-144.99;100.00;52607.09;5018164;28;19987;-71
2023/12/04 10:55:28;;;;;;;;;;;;;;;-144.99;100.00;52653.97;5023310;28;19933;-71
2023/12/04 10:57:56;;;;;;;;;;;;;;;-144.99;100.00;52678.44;5017537;28;19929;-71
2023/12/04 11:00:24;;;;;;;;;;;;;;;-144.99;100.00;52660.09;5027991;28;19929;-72
2023/12/04 11:02:53;;;;;;;;;;;;;;;-144.99;100.00;52641.72;5028071;28;19925;-72
2023/12/04 11:05:21;;;;;;;;;;;;;;;-144.99;100.00;52631.53;5035489;28;19936;-71
2023/12/04 11:07:51;;;;;;;;;;;;;;;-144.99;100.00;52694.72;5030529;28;19987;-71
2023/12/04 11:10:18;;;;;;;;;;;;;;;-144.99;100.00;52643.78;5033163;28;19983;-71
2023/12/04 11:12:46;;;;;;;;;;;;;;;-144.99;100.00;52643.78;5030175;28;19929;-71
2023/12/04 11:15:16;;;;;;;;;;;;;;;-144.99;100.00;52668.22;5025894;28;19937;-71
2023/12/04 11:17:44;;;;;;;;;;;;;;;-144.99;100.00;52631.53;5029634;28;19956;-71
2023/12/04 11:20:11;;;;;;;;;;;;;;;-144.99;100.00;52664.16;5027959;28;19937;-71
2023/12/04 11:22:40;;;;;;;;;;;;;;;-144.99;100.00;52627.47;5034887;28;19928;-71
2023/12/04 11:25:07;;;;;;;;;;;;;;;-144.99;100.00;52647.84;5014597;28;19926;-71
2023/12/04 11:27:35;;;;;;;;;;;;;;;-144.99;100.00;52684.53;5036417;28;19925;-71
2023/12/04 11:30:03;;;;;;;;;;;;;;;-144.99;100.00;52651.94;5031920;28;19999;-71
2023/12/04 11:32:31;;;;;;;;;;;;;;;-144.99;100.00;52627.47;5028142;28;19936;-72
2023/12/04 11:35:02;;;;;;;;;;;;;;;-144.99;100.00;52625.44;5020298;28;19933;-72
2023/12/04 11:37:28;;;;;;;;;;;;;;;-144.99;100.00;52621.34;5019915;28;19925;-70
2023/12/04 11:39:56;;;;;;;;;;;;;;;-144.99;100.00;52668.22;5026406;28;20030;-73
2023/12/04 11:42:23;;;;;;;;;;;;;;;-144.99;100.00;52647.84;5022658;28;19940;-72
2023/12/04 11:44:50;;;;;;;;;;;;;;;-144.99;100.00;52619.31;5045607;28;20416;-70
2023/12/04 11:47:16;;;;;;;;;;;;;;;-144.99;100.00;52633.59;5030203;28;19929;-71
2023/12/04 11:49:45;;;;;;;;;;;;;;;-144.99;100.00;52660.09;5022716;28;20440;-70
2023/12/04 11:52:12;;;;;;;;;;;;;;;-144.99;100.00;52656.00;5028069;28;20818;-71
2023/12/04 11:54:58;;;;;;;;;;;;;;;-144.99;100.00;52611.16;5018640;28;20358;-71
2023/12/04 11:57:25;;;;;;;;;;;;;;;-144.99;100.00;52625.44;5034029;28;20011;-70
2023/12/04 11:59:52;;;;;;;;;;;;;;;-144.99;100.00;52627.47;5018827;28;19925;-71
2023/12/04 12:02:19;;;;;;;;;;;;;;;-144.99;100.00;52668.22;5030348;28;20601;-72
2023/12/04 12:04:47;;;;;;;;;;;;;;;-144.99;100.00;52656.00;5025907;28;20334;-71
2023/12/04 12:07:15;;;;;;;;;;;;;;;-144.99;100.00;52631.53;5023872;28;19925;-71
2023/12/04 12:09:42;;;;;;;;;;;;;;;-144.99;100.00;52656.00;5027141;28;19936;-71
2023/12/04 12:12:09;;;;;;;;;;;;;;;-144.99;100.00;52676.38;5024264;28;19960;-70
2023/12/04 12:14:35;;;;;;;;;;;;;;;-144.99;100.00;52623.38;5027827;28;19936;-71
2023/12/04 12:17:02;;;;;;;;;;;;;;;-144.99;100.00;52668.22;5026114;28;19972;-72